createdAt,value
2022-12-27T00:01:29.167Z,76.51
2022-12-27T00:04:03.409Z,76.48
2022-12-27T00:06:33.051Z,76.44
2022-12-27T00:09:04.032Z,76.63
2022-12-27T00:11:33.979Z,76.71
2022-12-27T00:14:04.462Z,77.01
2022-12-27T00:16:36.370Z,76.96
2022-12-27T00:19:06.350Z,76.98
2022-12-27T00:21:36.241Z,76.91
2022-12-27T00:24:05.627Z,76.82
2022-12-27T00:26:36.424Z,77.35
2022-12-27T00:29:06.136Z,77.41
2022-12-27T00:31:37.194Z,76.95
2022-12-27T00:34:12.655Z,77.11
2022-12-27T00:36:41.898Z,77.09
2022-12-27T00:39:12.668Z,77.26
2022-12-27T00:41:48.284Z,77.38
2022-12-27T00:44:22.560Z,77.25
2022-12-27T00:47:02.206Z,77.08
2022-12-27T00:49:34.127Z,77.23
2022-12-27T00:54:44.174Z,76.55
2022-12-27T00:57:13.338Z,77.07
2022-12-27T00:59:42.673Z,76.89
2022-12-27T01:02:14.602Z,77.50
2022-12-27T01:04:43.852Z,77.49
2022-12-27T01:07:12.908Z,77.85
2022-12-27T01:09:44.588Z,77.94
2022-12-27T01:12:13.898Z,77.68
2022-12-27T01:14:42.956Z,78.34
2022-12-27T01:17:14.286Z,77.92
2022-12-27T01:19:43.605Z,77.45
2022-12-27T01:22:12.735Z,77.72
2022-12-27T01:24:47.080Z,77.37
2022-12-27T01:27:16.430Z,77.63
2022-12-27T01:29:47.503Z,77.57
2022-12-27T01:34:58.429Z,78.37
2022-12-27T01:37:29.802Z,78.01
2022-12-27T01:39:59.524Z,77.67
2022-12-27T01:42:42.797Z,77.85
2022-12-27T01:45:19.199Z,77.60
2022-12-27T01:48:01.156Z,77.43
2022-12-27T01:50:39.962Z,77.52
2022-12-27T01:53:13.622Z,77.44
2022-12-27T01:55:47.825Z,77.51
2022-12-27T01:58:20.677Z,77.68
2022-12-27T02:00:51.166Z,77.50
2022-12-27T02:03:27.235Z,77.21
2022-12-27T02:05:57.415Z,77.18
2022-12-27T02:08:40.834Z,77.73
2022-12-27T02:11:11.137Z,77.53
2022-12-27T02:13:43.907Z,77.93
2022-12-27T02:16:33.519Z,78.00
2022-12-27T02:19:10.725Z,77.99
2022-12-27T02:22:03.060Z,78.21
2022-12-27T02:24:53.698Z,77.88
2022-12-27T02:27:45.888Z,77.62
2022-12-27T02:30:17.035Z,76.73
2022-12-27T02:35:31.996Z,77.13
2022-12-27T02:38:14.316Z,77.04
2022-12-27T02:40:58.995Z,77.10
2022-12-27T02:43:41.675Z,77.41
2022-12-27T02:46:32.066Z,77.46
2022-12-27T02:49:15.654Z,77.98
2022-12-27T02:52:20.218Z,78.05
2022-12-27T02:55:17.452Z,77.68
2022-12-27T02:58:02.723Z,78.38
2022-12-27T03:00:50.529Z,78.68
2022-12-27T03:03:44.870Z,78.58
2022-12-27T03:06:44.377Z,78.49
2022-12-27T03:10:08.145Z,78.03
2022-12-27T03:13:02.174Z,77.95
2022-12-27T03:15:57.763Z,77.91
2022-12-27T03:18:52.367Z,78.43
2022-12-27T03:21:40.972Z,78.21
2022-12-27T03:24:23.786Z,77.83
2022-12-27T03:26:54.261Z,78.50
2022-12-27T03:29:37.487Z,78.48
2022-12-27T03:32:27.226Z,79.55
2022-12-27T03:35:03.704Z,79.36
2022-12-27T03:37:49.328Z,79.05
2022-12-27T03:40:34.208Z,79.43
2022-12-27T03:43:11.017Z,80.03
2022-12-27T03:46:11.808Z,79.70
2022-12-27T03:48:55.715Z,79.77
2022-12-27T03:51:30.043Z,79.70
2022-12-27T03:54:06.192Z,79.58
2022-12-27T03:56:35.676Z,80.04
2022-12-27T03:59:05.599Z,79.75
2022-12-27T04:01:34.874Z,80.43
2022-12-27T04:04:04.191Z,80.31
2022-12-27T04:06:43.486Z,80.05
2022-12-27T04:09:26.453Z,79.95
2022-12-27T04:12:08.774Z,80.35
2022-12-27T04:17:39.144Z,80.34
2022-12-27T04:20:26.130Z,80.42
2022-12-27T04:23:10.166Z,79.73
2022-12-27T04:25:57.361Z,79.96
2022-12-27T04:28:39.459Z,79.91
2022-12-27T04:31:21.679Z,79.55
2022-12-27T04:34:05.029Z,79.69
2022-12-27T04:36:45.143Z,79.46
2022-12-27T04:39:16.537Z,80.01
2022-12-27T04:41:58.865Z,79.81
2022-12-27T04:44:41.018Z,80.27
2022-12-27T04:47:30.098Z,80.67
2022-12-27T04:50:12.477Z,80.87
2022-12-27T04:52:59.570Z,80.88
2022-12-27T04:55:32.073Z,81.11
2022-12-27T04:58:01.661Z,80.79
2022-12-27T05:00:45.644Z,81.06
2022-12-27T05:03:18.155Z,80.85
2022-12-27T05:05:49.263Z,80.46
2022-12-27T05:08:38.611Z,80.63
2022-12-27T05:11:23.917Z,80.41
2022-12-27T05:14:02.275Z,80.13
2022-12-27T05:16:33.019Z,80.44
2022-12-27T05:19:02.277Z,80.09
2022-12-27T05:21:31.520Z,80.14
2022-12-27T05:26:50.450Z,80.36
2022-12-27T05:29:19.604Z,80.62
2022-12-27T05:31:53.791Z,81.15
2022-12-27T05:34:23.157Z,80.99
2022-12-27T05:36:52.370Z,81.15
2022-12-27T05:39:21.534Z,81.60
2022-12-27T05:41:52.663Z,81.19
2022-12-27T05:44:26.893Z,81.30
2022-12-27T05:46:56.622Z,80.92
2022-12-27T05:49:25.805Z,81.48
2022-12-27T05:54:35.358Z,81.51
2022-12-27T05:57:06.876Z,81.58
2022-12-27T05:59:36.309Z,81.20
2022-12-27T06:02:10.625Z,81.40
2022-12-27T06:04:40.141Z,81.01
2022-12-27T06:07:09.468Z,80.82
2022-12-27T06:09:38.827Z,80.99
2022-12-27T06:12:10.094Z,81.33
2022-12-27T06:14:40.987Z,81.26
2022-12-27T06:17:10.032Z,83.08
2022-12-27T06:19:39.750Z,84.55
2022-12-27T06:22:08.917Z,86.47
2022-12-27T06:24:49.460Z,88.17
2022-12-27T06:27:20.777Z,88.66
2022-12-27T06:29:50.050Z,90.55
2022-12-27T06:32:19.266Z,89.23
2022-12-27T06:34:48.503Z,90.73
2022-12-27T06:37:17.746Z,92.11
2022-12-27T06:39:46.954Z,92.60
2022-12-27T06:42:16.172Z,93.50
2022-12-27T06:44:47.913Z,93.57
2022-12-27T06:47:17.298Z,93.91
2022-12-27T06:49:47.185Z,94.47
2022-12-27T06:52:16.355Z,93.97
2022-12-27T06:54:45.465Z,94.24
2022-12-27T06:57:14.734Z,94.29
2022-12-27T06:59:48.080Z,94.82
2022-12-27T07:02:22.347Z,93.37
2022-12-27T07:04:51.605Z,94.41
2022-12-27T07:07:20.726Z,94.24
2022-12-27T07:09:55.039Z,94.21
2022-12-27T07:12:24.327Z,93.05
2022-12-27T07:14:53.516Z,93.90
2022-12-27T07:17:24.769Z,94.71
2022-12-27T07:19:54.055Z,94.53
2022-12-27T07:22:23.174Z,94.16
2022-12-27T07:24:52.462Z,94.33
2022-12-27T07:27:21.533Z,94.80
2022-12-27T07:29:51.238Z,94.58
2022-12-27T07:32:26.691Z,93.68
2022-12-27T07:34:58.335Z,94.62
2022-12-27T07:37:27.571Z,94.40
2022-12-27T07:39:56.610Z,94.64
2022-12-27T07:42:37.926Z,95.43
2022-12-27T07:45:12.405Z,94.61
2022-12-27T07:47:41.654Z,94.43
2022-12-27T07:50:13.162Z,95.95
2022-12-27T07:52:42.433Z,97.80
2022-12-27T07:55:12.003Z,98.44
2022-12-27T07:57:41.812Z,98.35
2022-12-27T08:00:12.178Z,98.04
2022-12-27T08:02:42.992Z,98.35
2022-12-27T08:05:25.896Z,98.45
2022-12-27T08:08:00.848Z,98.33
2022-12-27T08:10:30.348Z,98.33
2022-12-27T08:12:59.611Z,98.69
2022-12-27T08:15:28.901Z,98.07
2022-12-27T08:17:58.221Z,98.76
2022-12-27T08:20:29.781Z,99.03
2022-12-27T08:23:05.647Z,99.45
2022-12-27T08:25:34.738Z,99.37
2022-12-27T08:28:12.092Z,100.00
2022-12-27T08:30:42.150Z,99.41
2022-12-27T08:33:11.583Z,99.77
2022-12-27T08:38:24.519Z,99.47
2022-12-27T08:40:53.574Z,99.22
2022-12-27T08:43:29.527Z,99.95
2022-12-27T08:46:02.991Z,98.34
2022-12-27T08:51:14.540Z,99.92
2022-12-27T08:53:51.895Z,99.44
2022-12-27T08:56:21.076Z,100.00
2022-12-27T08:58:51.177Z,100.00
2022-12-27T09:01:20.637Z,100.00
2022-12-27T09:03:49.804Z,100.00
2022-12-27T09:06:27.302Z,99.82
2022-12-27T09:08:56.900Z,100.00
2022-12-27T09:11:27.882Z,100.00
2022-12-27T09:14:01.462Z,100.00
2022-12-27T09:16:38.657Z,100.00
2022-12-27T09:19:07.816Z,100.00
2022-12-27T09:21:42.500Z,100.00
2022-12-27T09:24:13.746Z,100.00
2022-12-27T09:26:44.654Z,100.00
2022-12-27T09:29:14.483Z,100.00
2022-12-27T09:31:43.664Z,100.00
2022-12-27T09:34:13.597Z,100.00
2022-12-27T09:36:45.954Z,100.00
2022-12-27T09:44:57.814Z,100.00
2022-12-27T09:47:30.508Z,100.00
2022-12-27T09:50:04.867Z,100.00
2022-12-27T09:52:43.105Z,100.00
2022-12-27T09:55:19.701Z,100.00
2022-12-27T09:57:50.130Z,100.00
2022-12-27T10:00:34.820Z,100.00
2022-12-27T10:03:07.363Z,100.00
2022-12-27T10:08:36.844Z,100.00
2022-12-27T10:11:35.685Z,100.00
2022-12-27T10:14:16.236Z,100.00
2022-12-27T10:17:03.463Z,100.00
2022-12-27T10:19:48.159Z,100.00
2022-12-27T10:22:30.874Z,100.00
2022-12-27T10:25:07.084Z,100.00
2022-12-27T10:27:36.956Z,100.00
2022-12-27T10:30:16.762Z,100.00
2022-12-27T10:32:51.648Z,100.00
2022-12-27T10:35:23.726Z,100.00
2022-12-27T10:37:53.638Z,100.00
2022-12-27T10:40:34.498Z,100.00
2022-12-27T10:43:07.968Z,100.00
2022-12-27T10:45:41.832Z,100.00
2022-12-27T10:48:21.030Z,100.00
2022-12-27T10:50:59.709Z,100.00
2022-12-27T10:53:36.406Z,100.00
2022-12-27T10:56:16.632Z,100.00
2022-12-27T10:58:54.642Z,100.00
2022-12-27T11:01:29.392Z,100.00
2022-12-27T11:04:20.572Z,100.00
2022-12-27T11:06:52.144Z,100.00
2022-12-27T11:09:28.028Z,100.00
2022-12-27T11:12:18.907Z,100.00
2022-12-27T11:14:59.824Z,100.00
2022-12-27T11:17:31.584Z,100.00
2022-12-27T11:20:04.349Z,100.00
2022-12-27T11:22:34.065Z,100.00
2022-12-27T11:25:03.621Z,100.00
2022-12-27T11:27:35.319Z,100.00
2022-12-27T11:30:04.605Z,100.00
2022-12-27T11:32:34.929Z,100.00
2022-12-27T11:35:04.496Z,100.00
2022-12-27T11:37:33.803Z,100.00
2022-12-27T11:40:23.051Z,100.00
2022-12-27T11:42:59.871Z,100.00
2022-12-27T11:45:36.639Z,100.00
2022-12-27T11:48:14.965Z,100.00
2022-12-27T11:51:02.735Z,100.00
2022-12-27T11:54:05.546Z,100.00
2022-12-27T11:56:38.775Z,100.00
2022-12-27T11:59:40.452Z,100.00
2022-12-27T12:02:34.149Z,100.00
2022-12-27T12:05:41.453Z,100.00
2022-12-27T12:08:36.025Z,100.00
2022-12-27T12:11:15.110Z,100.00
2022-12-27T12:14:21.613Z,100.00
2022-12-27T12:17:41.080Z,100.00
2022-12-27T12:20:34.451Z,100.00
2022-12-27T12:23:12.780Z,100.00
2022-12-27T12:26:07.561Z,100.00
2022-12-27T12:29:06.221Z,100.00
2022-12-27T12:32:05.686Z,100.00
2022-12-27T12:35:01.066Z,100.00
2022-12-27T12:37:59.563Z,100.00
2022-12-27T12:40:58.657Z,100.00
2022-12-27T12:43:58.032Z,100.00
2022-12-27T12:46:34.424Z,100.00
2022-12-27T12:55:02.999Z,100.00
2022-12-27T12:57:47.969Z,100.00
2022-12-27T13:00:39.243Z,100.00
2022-12-27T13:03:31.010Z,100.00
2022-12-27T13:06:13.871Z,100.00
2022-12-27T13:08:54.554Z,100.00
2022-12-27T13:11:43.436Z,100.00
2022-12-27T13:14:29.328Z,100.00
2022-12-27T13:17:04.279Z,100.00
2022-12-27T13:20:00.418Z,100.00
2022-12-27T13:22:46.950Z,100.00
2022-12-27T13:25:27.365Z,100.00
2022-12-27T13:28:25.795Z,100.00
2022-12-27T13:31:03.793Z,100.00
2022-12-27T13:33:45.528Z,100.00
2022-12-27T13:36:29.124Z,100.00
2022-12-27T13:39:19.880Z,100.00
2022-12-27T13:42:19.821Z,100.00
2022-12-27T13:45:03.137Z,100.00
2022-12-27T13:48:05.853Z,100.00
2022-12-27T13:50:58.822Z,100.00
2022-12-27T13:54:12.083Z,100.00
2022-12-27T13:56:56.616Z,100.00
2022-12-27T13:59:48.952Z,100.00
2022-12-27T14:02:52.772Z,100.00
2022-12-27T14:06:00.486Z,100.00
2022-12-27T14:08:42.931Z,100.00
2022-12-27T14:11:31.112Z,100.00
2022-12-27T14:14:02.537Z,100.00
2022-12-27T14:16:41.444Z,100.00
2022-12-27T14:19:36.665Z,100.00
2022-12-27T14:22:26.640Z,100.00
2022-12-27T14:25:31.068Z,100.00
2022-12-27T14:28:32.895Z,100.00
2022-12-27T14:31:34.538Z,100.00
2022-12-27T14:34:30.101Z,100.00
2022-12-27T14:37:24.838Z,100.00
2022-12-27T14:40:34.789Z,100.00
2022-12-27T14:43:51.966Z,100.00
2022-12-27T14:46:56.959Z,100.00
2022-12-27T14:49:59.989Z,100.00
2022-12-27T14:53:06.943Z,100.00
2022-12-27T14:56:03.732Z,100.00
2022-12-27T14:58:51.479Z,100.00
2022-12-27T15:01:39.127Z,100.00
2022-12-27T15:04:34.372Z,100.00
2022-12-27T15:07:33.910Z,100.00
2022-12-27T15:10:11.990Z,100.00
2022-12-27T15:12:51.840Z,100.00
2022-12-27T15:15:35.336Z,100.00
2022-12-27T15:18:18.930Z,100.00
2022-12-27T15:21:03.420Z,100.00
2022-12-27T15:23:46.165Z,100.00
2022-12-27T15:26:23.875Z,100.00
2022-12-27T15:29:19.490Z,100.00
2022-12-27T15:31:59.425Z,100.00
2022-12-27T15:34:42.944Z,100.00
2022-12-27T15:37:42.066Z,100.00
2022-12-27T15:40:40.722Z,100.00
2022-12-27T15:43:24.392Z,100.00
2022-12-27T15:46:09.944Z,100.00
2022-12-27T15:48:53.816Z,100.00
2022-12-27T15:51:34.071Z,100.00
2022-12-27T15:54:24.506Z,100.00
2022-12-27T15:57:38.259Z,100.00
2022-12-27T16:00:16.784Z,100.00
2022-12-27T16:02:54.262Z,100.00
2022-12-27T16:05:44.670Z,100.00
2022-12-27T16:08:41.508Z,100.00
2022-12-27T16:11:13.621Z,100.00
2022-12-27T16:13:48.521Z,100.00
2022-12-27T16:16:56.731Z,100.00
2022-12-27T16:19:41.065Z,100.00
2022-12-27T16:22:25.578Z,100.00
2022-12-27T16:24:55.432Z,100.00
2022-12-27T16:27:32.732Z,100.00
2022-12-27T16:30:02.479Z,100.00
2022-12-27T16:32:34.455Z,100.00
2022-12-27T16:35:17.464Z,100.00
2022-12-27T16:37:54.307Z,100.00
2022-12-27T16:40:42.634Z,100.00
2022-12-27T16:43:51.053Z,100.00
2022-12-27T16:46:36.343Z,100.00
2022-12-27T16:49:24.950Z,100.00
2022-12-27T16:52:13.433Z,100.00
2022-12-27T16:54:53.827Z,100.00
2022-12-27T16:57:48.080Z,100.00
2022-12-27T17:00:39.891Z,100.00
2022-12-27T17:03:35.006Z,100.00
2022-12-27T17:06:34.436Z,100.00
2022-12-27T17:09:38.865Z,100.00
2022-12-27T17:12:19.271Z,100.00
2022-12-27T17:17:26.460Z,100.00
2022-12-27T17:20:11.937Z,100.00
2022-12-27T17:22:41.755Z,100.00
2022-12-27T17:25:27.353Z,100.00
2022-12-27T17:28:11.369Z,100.00
2022-12-27T17:30:52.757Z,100.00
2022-12-27T17:33:37.340Z,100.00
2022-12-27T17:36:54.567Z,100.00
2022-12-27T17:39:44.984Z,100.00
2022-12-27T17:42:34.433Z,100.00
2022-12-27T17:45:21.047Z,100.00
2022-12-27T17:48:07.925Z,100.00
2022-12-27T17:50:41.114Z,100.00
2022-12-27T17:53:32.904Z,100.00
2022-12-27T17:56:17.460Z,100.00
2022-12-27T17:58:46.907Z,100.00
2022-12-27T18:01:18.203Z,100.00
2022-12-27T18:03:49.242Z,100.00
2022-12-27T18:06:21.521Z,100.00
2022-12-27T18:08:52.117Z,100.00
2022-12-27T18:11:27.754Z,100.00
2022-12-27T18:14:01.003Z,100.00
2022-12-27T18:16:39.635Z,100.00
2022-12-27T18:19:20.886Z,100.00
2022-12-27T18:21:57.348Z,100.00
2022-12-27T18:24:29.008Z,100.00
2022-12-27T18:27:12.104Z,100.00
2022-12-27T18:29:46.583Z,100.00
2022-12-27T18:32:20.493Z,100.00
2022-12-27T18:34:56.096Z,100.00
2022-12-27T18:37:27.642Z,100.00
2022-12-27T18:39:59.836Z,100.00
2022-12-27T18:42:36.252Z,100.00
2022-12-27T18:45:09.170Z,100.00
2022-12-27T18:47:46.878Z,100.00
2022-12-27T18:50:19.914Z,100.00
2022-12-27T18:52:54.941Z,100.00
2022-12-27T18:55:27.250Z,100.00
2022-12-27T18:58:05.389Z,100.00
2022-12-27T19:00:48.178Z,100.00
2022-12-27T19:03:21.456Z,100.00
2022-12-27T19:06:10.293Z,100.00
2022-12-27T19:08:45.555Z,100.00
2022-12-27T19:11:23.768Z,100.00
2022-12-27T19:13:56.228Z,100.00
2022-12-27T19:16:29.467Z,100.00
2022-12-27T19:19:08.424Z,100.00
2022-12-27T19:21:40.472Z,100.00
2022-12-27T19:24:23.181Z,100.00
2022-12-27T19:27:06.652Z,100.00
2022-12-27T19:29:42.569Z,100.00
2022-12-27T19:32:21.336Z,100.00
2022-12-27T19:34:54.672Z,100.00
2022-12-27T19:37:27.504Z,100.00
2022-12-27T19:40:02.137Z,100.00
2022-12-27T19:42:35.055Z,100.00
2022-12-27T19:45:04.556Z,100.00
2022-12-27T19:47:38.826Z,100.00
2022-12-27T19:50:11.576Z,100.00
2022-12-27T19:52:47.088Z,100.00
2022-12-27T19:55:29.950Z,100.00
2022-12-27T19:57:59.601Z,100.00
2022-12-27T20:00:28.923Z,100.00
2022-12-27T20:02:58.440Z,100.00
2022-12-27T20:06:11.734Z,100.00
2022-12-27T20:08:26.270Z,100.00
2022-12-27T20:11:01.891Z,100.00
2022-12-27T20:13:31.114Z,100.00
2022-12-27T20:16:07.261Z,100.00
2022-12-27T20:18:36.694Z,100.00
2022-12-27T20:21:18.280Z,100.00
2022-12-27T20:23:49.274Z,100.00
2022-12-27T20:26:21.094Z,100.00
2022-12-27T20:28:50.133Z,100.00
2022-12-27T20:31:22.966Z,100.00
2022-12-27T20:33:58.173Z,100.00
2022-12-27T20:36:29.413Z,100.00
2022-12-27T20:39:00.563Z,100.00
2022-12-27T20:44:19.359Z,100.00
2022-12-27T20:49:34.187Z,100.00
2022-12-27T20:52:05.825Z,100.00
2022-12-27T20:57:16.076Z,100.00
2022-12-27T20:59:50.342Z,100.00
2022-12-27T21:02:20.365Z,100.00
2022-12-27T21:04:49.684Z,100.00
2022-12-27T21:07:20.883Z,100.00
2022-12-27T21:09:50.235Z,100.00
2022-12-27T21:12:19.594Z,100.00
2022-12-27T21:14:49.576Z,100.00
2022-12-27T21:17:18.941Z,100.00
2022-12-27T21:19:55.146Z,100.00
2022-12-27T21:22:26.291Z,100.00
2022-12-27T21:24:55.634Z,100.00
2022-12-27T21:27:24.689Z,100.00
2022-12-27T21:30:01.384Z,100.00
2022-12-27T21:32:32.353Z,100.00
2022-12-27T21:35:07.320Z,100.00
2022-12-27T21:37:38.416Z,100.00
2022-12-27T21:40:09.314Z,100.00
2022-12-27T21:42:38.480Z,100.00
2022-12-27T21:45:08.872Z,100.00
2022-12-27T21:47:38.258Z,100.00
2022-12-27T21:50:08.170Z,100.00
2022-12-27T21:52:39.406Z,100.00
2022-12-27T21:55:09.191Z,100.00
2022-12-27T21:57:48.293Z,100.00
2022-12-27T22:00:18.277Z,100.00
2022-12-27T22:02:49.628Z,100.00
2022-12-27T22:05:24.966Z,100.00
2022-12-27T22:07:58.187Z,100.00
2022-12-27T22:10:27.496Z,100.00
2022-12-27T22:12:56.628Z,100.00
2022-12-27T22:15:25.990Z,100.00
2022-12-27T22:18:01.400Z,100.00
2022-12-27T22:20:30.611Z,100.00
2022-12-27T22:23:01.632Z,100.00
2022-12-27T22:25:35.985Z,100.00
2022-12-27T22:28:05.060Z,100.00
2022-12-27T22:30:37.166Z,100.00
2022-12-27T22:35:47.168Z,100.00
2022-12-27T22:38:18.281Z,100.00
2022-12-27T22:40:47.470Z,100.00
2022-12-27T22:43:16.734Z,100.00
2022-12-27T22:45:51.932Z,100.00
2022-12-27T22:48:23.021Z,100.00
2022-12-27T22:50:52.167Z,100.00
2022-12-27T22:53:28.725Z,100.00
2022-12-27T22:55:58.042Z,100.00
2022-12-27T22:58:31.150Z,100.00
2022-12-27T23:01:12.620Z,100.00
2022-12-27T23:03:42.069Z,100.00
2022-12-27T23:06:12.071Z,100.00
2022-12-27T23:08:49.412Z,100.00
2022-12-27T23:11:25.974Z,100.00
2022-12-27T23:13:57.530Z,100.00
2022-12-27T23:16:27.228Z,100.00
2022-12-27T23:18:57.048Z,100.00
2022-12-27T23:21:26.261Z,100.00
2022-12-27T23:24:02.846Z,100.00
2022-12-27T23:26:32.345Z,100.00
2022-12-27T23:29:01.960Z,100.00
2022-12-27T23:31:31.364Z,100.00
2022-12-27T23:34:00.755Z,100.00
2022-12-27T23:36:32.391Z,100.00
2022-12-27T23:39:03.752Z,100.00
2022-12-27T23:41:33.381Z,100.00
2022-12-27T23:44:03.041Z,100.00
2022-12-27T23:46:37.417Z,100.00
2022-12-27T23:49:06.761Z,100.00
2022-12-27T23:51:36.096Z,100.00
2022-12-27T23:54:07.333Z,100.00
2022-12-27T23:56:36.590Z,100.00
2022-12-27T23:59:10.755Z,100.00
